sensor_id;sensor_type;location;lat;lon;timestamp;P1;durP1;ratioP1;P2;durP2;ratioP2
22113;SDS011;11223;49.968;9.062;2022-11-20T00:00:42;25.20;;;13.83;;
22113;SDS011;11223;49.968;9.062;2022-11-20T00:03:08;21.87;;;12.73;;
22113;SDS011;11223;49.968;9.062;2022-11-20T00:05:33;24.13;;;14.37;;
22113;SDS011;11223;49.968;9.062;2022-11-20T00:07:59;28.03;;;15.70;;
22113;SDS011;11223;49.968;9.062;2022-11-20T00:10:25;26.40;;;15.00;;
22113;SDS011;11223;49.968;9.062;2022-11-20T00:12:51;22.23;;;14.43;;
22113;SDS011;11223;49.968;9.062;2022-11-20T00:15:17;25.70;;;15.37;;
22113;SDS011;11223;49.968;9.062;2022-11-20T00:17:42;21.43;;;12.50;;
22113;SDS011;11223;49.968;9.062;2022-11-20T00:20:08;24.77;;;15.03;;
22113;SDS011;11223;49.968;9.062;2022-11-20T00:22:35;25.80;;;15.35;;
22113;SDS011;11223;49.968;9.062;2022-11-20T00:25:01;24.60;;;14.43;;
22113;SDS011;11223;49.968;9.062;2022-11-20T00:27:26;25.17;;;15.13;;
22113;SDS011;11223;49.968;9.062;2022-11-20T00:29:52;24.87;;;15.80;;
22113;SDS011;11223;49.968;9.062;2022-11-20T00:32:18;24.63;;;14.90;;
22113;SDS011;11223;49.968;9.062;2022-11-20T00:34:44;21.33;;;15.40;;
22113;SDS011;11223;49.968;9.062;2022-11-20T00:37:09;25.50;;;14.83;;
22113;SDS011;11223;49.968;9.062;2022-11-20T00:39:35;26.00;;;15.10;;
22113;SDS011;11223;49.968;9.062;2022-11-20T00:42:00;28.00;;;16.57;;
22113;SDS011;11223;49.968;9.062;2022-11-20T00:44:26;23.40;;;14.60;;
22113;SDS011;11223;49.968;9.062;2022-11-20T00:46:51;24.90;;;13.73;;
22113;SDS011;11223;49.968;9.062;2022-11-20T00:49:17;22.80;;;13.80;;
22113;SDS011;11223;49.968;9.062;2022-11-20T00:51:42;31.50;;;15.13;;
22113;SDS011;11223;49.968;9.062;2022-11-20T00:54:08;26.37;;;15.13;;
22113;SDS011;11223;49.968;9.062;2022-11-20T00:56:34;21.77;;;13.93;;
22113;SDS011;11223;49.968;9.062;2022-11-20T00:59:00;29.17;;;17.33;;
22113;SDS011;11223;49.968;9.062;2022-11-20T01:01:26;25.02;;;14.65;;
22113;SDS011;11223;49.968;9.062;2022-11-20T01:03:54;24.33;;;16.90;;
22113;SDS011;11223;49.968;9.062;2022-11-20T01:08:49;26.92;;;14.98;;
22113;SDS011;11223;49.968;9.062;2022-11-20T01:11:20;23.50;;;14.35;;
22113;SDS011;11223;49.968;9.062;2022-11-20T01:13:48;32.20;;;14.95;;
22113;SDS011;11223;49.968;9.062;2022-11-20T01:16:15;28.80;;;15.50;;
22113;SDS011;11223;49.968;9.062;2022-11-20T01:18:44;27.98;;;16.67;;
22113;SDS011;11223;49.968;9.062;2022-11-20T01:21:13;27.75;;;15.57;;
22113;SDS011;11223;49.968;9.062;2022-11-20T01:23:43;26.38;;;14.98;;
22113;SDS011;11223;49.968;9.062;2022-11-20T01:26:14;29.20;;;16.23;;
22113;SDS011;11223;49.968;9.062;2022-11-20T01:28:42;23.27;;;14.35;;
22113;SDS011;11223;49.968;9.062;2022-11-20T01:31:15;27.73;;;14.32;;
22113;SDS011;11223;49.968;9.062;2022-11-20T01:33:43;24.33;;;14.55;;
22113;SDS011;11223;49.968;9.062;2022-11-20T01:36:10;25.40;;;14.93;;
22113;SDS011;11223;49.968;9.062;2022-11-20T01:38:36;29.02;;;15.98;;
22113;SDS011;11223;49.968;9.062;2022-11-20T01:41:02;30.30;;;17.63;;
22113;SDS011;11223;49.968;9.062;2022-11-20T01:43:28;24.40;;;14.98;;
22113;SDS011;11223;49.968;9.062;2022-11-20T01:54:11;23.65;;;14.82;;
22113;SDS011;11223;49.968;9.062;2022-11-20T01:56:51;25.33;;;13.95;;
22113;SDS011;11223;49.968;9.062;2022-11-20T01:59:20;26.15;;;14.40;;
22113;SDS011;11223;49.968;9.062;2022-11-20T02:01:49;27.77;;;17.25;;
22113;SDS011;11223;49.968;9.062;2022-11-20T02:04:15;23.33;;;14.80;;
22113;SDS011;11223;49.968;9.062;2022-11-20T02:06:46;24.50;;;14.60;;
22113;SDS011;11223;49.968;9.062;2022-11-20T02:09:15;23.33;;;15.07;;
22113;SDS011;11223;49.968;9.062;2022-11-20T02:11:41;22.73;;;15.98;;
22113;SDS011;11223;49.968;9.062;2022-11-20T02:14:07;27.37;;;15.63;;
22113;SDS011;11223;49.968;9.062;2022-11-20T02:16:35;24.30;;;16.48;;
22113;SDS011;11223;49.968;9.062;2022-11-20T02:19:04;24.83;;;14.80;;
22113;SDS011;11223;49.968;9.062;2022-11-20T02:21:55;24.60;;;14.88;;
22113;SDS011;11223;49.968;9.062;2022-11-20T02:24:24;24.75;;;14.23;;
22113;SDS011;11223;49.968;9.062;2022-11-20T02:29:17;25.95;;;13.65;;
22113;SDS011;11223;49.968;9.062;2022-11-20T02:31:49;20.67;;;14.00;;
22113;SDS011;11223;49.968;9.062;2022-11-20T02:34:16;23.10;;;13.80;;
22113;SDS011;11223;49.968;9.062;2022-11-20T02:36:41;26.00;;;14.03;;
22113;SDS011;11223;49.968;9.062;2022-11-20T02:39:08;28.48;;;13.02;;
22113;SDS011;11223;49.968;9.062;2022-11-20T02:41:37;23.13;;;13.45;;
22113;SDS011;11223;49.968;9.062;2022-11-20T02:44:03;22.52;;;13.63;;
22113;SDS011;11223;49.968;9.062;2022-11-20T02:46:30;20.65;;;11.55;;
22113;SDS011;11223;49.968;9.062;2022-11-20T02:48:56;20.65;;;12.85;;
22113;SDS011;11223;49.968;9.062;2022-11-20T02:51:22;22.07;;;11.83;;
22113;SDS011;11223;49.968;9.062;2022-11-20T02:53:48;21.92;;;13.63;;
22113;SDS011;11223;49.968;9.062;2022-11-20T02:56:14;21.60;;;13.70;;
22113;SDS011;11223;49.968;9.062;2022-11-20T02:58:41;24.20;;;14.65;;
22113;SDS011;11223;49.968;9.062;2022-11-20T03:01:06;21.13;;;11.93;;
22113;SDS011;11223;49.968;9.062;2022-11-20T03:03:32;21.33;;;12.13;;
22113;SDS011;11223;49.968;9.062;2022-11-20T03:05:58;21.07;;;13.30;;
22113;SDS011;11223;49.968;9.062;2022-11-20T03:08:24;18.58;;;12.48;;
22113;SDS011;11223;49.968;9.062;2022-11-20T03:10:49;21.30;;;11.73;;
22113;SDS011;11223;49.968;9.062;2022-11-20T03:13:15;19.80;;;11.27;;
22113;SDS011;11223;49.968;9.062;2022-11-20T03:15:41;23.77;;;13.47;;
22113;SDS011;11223;49.968;9.062;2022-11-20T03:18:06;23.23;;;12.23;;
22113;SDS011;11223;49.968;9.062;2022-11-20T03:20:33;21.50;;;14.30;;
22113;SDS011;11223;49.968;9.062;2022-11-20T03:22:58;21.00;;;14.20;;
22113;SDS011;11223;49.968;9.062;2022-11-20T03:25:24;20.50;;;11.60;;
22113;SDS011;11223;49.968;9.062;2022-11-20T03:27:50;20.47;;;12.40;;
22113;SDS011;11223;49.968;9.062;2022-11-20T03:30:15;19.20;;;12.50;;
22113;SDS011;11223;49.968;9.062;2022-11-20T03:32:41;21.03;;;12.10;;
22113;SDS011;11223;49.968;9.062;2022-11-20T03:35:07;21.13;;;14.47;;
22113;SDS011;11223;49.968;9.062;2022-11-20T03:37:33;20.10;;;11.57;;
22113;SDS011;11223;49.968;9.062;2022-11-20T03:39:58;19.40;;;11.87;;
22113;SDS011;11223;49.968;9.062;2022-11-20T03:42:24;21.57;;;13.27;;
22113;SDS011;11223;49.968;9.062;2022-11-20T03:45:08;20.52;;;12.55;;
22113;SDS011;11223;49.968;9.062;2022-11-20T03:47:34;21.40;;;12.70;;
22113;SDS011;11223;49.968;9.062;2022-11-20T03:50:00;18.10;;;11.73;;
22113;SDS011;11223;49.968;9.062;2022-11-20T03:52:25;23.00;;;13.10;;
22113;SDS011;11223;49.968;9.062;2022-11-20T03:54:51;18.57;;;12.47;;
22113;SDS011;11223;49.968;9.062;2022-11-20T03:57:16;21.73;;;11.50;;
22113;SDS011;11223;49.968;9.062;2022-11-20T03:59:42;19.33;;;10.80;;
22113;SDS011;11223;49.968;9.062;2022-11-20T04:02:07;15.30;;;10.20;;
22113;SDS011;11223;49.968;9.062;2022-11-20T04:04:33;19.07;;;11.33;;
22113;SDS011;11223;49.968;9.062;2022-11-20T04:06:59;19.03;;;11.70;;
22113;SDS011;11223;49.968;9.062;2022-11-20T04:09:24;22.50;;;12.70;;
22113;SDS011;11223;49.968;9.062;2022-11-20T04:11:50;17.63;;;11.57;;
22113;SDS011;11223;49.968;9.062;2022-11-20T04:14:16;20.43;;;12.80;;
22113;SDS011;11223;49.968;9.062;2022-11-20T04:16:41;17.73;;;11.60;;
22113;SDS011;11223;49.968;9.062;2022-11-20T04:19:11;20.25;;;12.55;;
22113;SDS011;11223;49.968;9.062;2022-11-20T04:21:41;23.20;;;13.30;;
22113;SDS011;11223;49.968;9.062;2022-11-20T04:24:07;18.60;;;10.95;;
22113;SDS011;11223;49.968;9.062;2022-11-20T04:26:33;13.73;;;10.00;;
22113;SDS011;11223;49.968;9.062;2022-11-20T04:28:59;22.13;;;12.40;;
22113;SDS011;11223;49.968;9.062;2022-11-20T04:31:29;18.17;;;10.75;;
22113;SDS011;11223;49.968;9.062;2022-11-20T04:33:58;19.08;;;12.57;;
22113;SDS011;11223;49.968;9.062;2022-11-20T04:36:26;17.65;;;10.55;;
22113;SDS011;11223;49.968;9.062;2022-11-20T04:38:52;16.60;;;10.95;;
22113;SDS011;11223;49.968;9.062;2022-11-20T04:41:21;20.92;;;12.30;;
22113;SDS011;11223;49.968;9.062;2022-11-20T04:43:48;18.77;;;12.07;;
22113;SDS011;11223;49.968;9.062;2022-11-20T04:46:15;17.65;;;11.65;;
22113;SDS011;11223;49.968;9.062;2022-11-20T04:48:42;21.45;;;12.10;;
22113;SDS011;11223;49.968;9.062;2022-11-20T04:51:08;18.92;;;11.82;;
22113;SDS011;11223;49.968;9.062;2022-11-20T04:53:33;18.93;;;12.20;;
22113;SDS011;11223;49.968;9.062;2022-11-20T04:56:00;17.93;;;11.20;;
22113;SDS011;11223;49.968;9.062;2022-11-20T04:58:26;19.67;;;11.95;;
22113;SDS011;11223;49.968;9.062;2022-11-20T05:00:52;17.20;;;10.65;;
22113;SDS011;11223;49.968;9.062;2022-11-20T05:03:18;18.20;;;12.00;;
22113;SDS011;11223;49.968;9.062;2022-11-20T05:05:43;23.40;;;11.27;;
22113;SDS011;11223;49.968;9.062;2022-11-20T05:08:09;15.93;;;11.70;;
22113;SDS011;11223;49.968;9.062;2022-11-20T05:10:34;18.10;;;10.80;;
22113;SDS011;11223;49.968;9.062;2022-11-20T05:13:00;14.63;;;10.80;;
22113;SDS011;11223;49.968;9.062;2022-11-20T05:15:26;18.10;;;10.90;;
22113;SDS011;11223;49.968;9.062;2022-11-20T05:17:51;17.10;;;10.40;;
22113;SDS011;11223;49.968;9.062;2022-11-20T05:20:18;23.95;;;12.55;;
22113;SDS011;11223;49.968;9.062;2022-11-20T05:22:44;19.88;;;11.40;;
22113;SDS011;11223;49.968;9.062;2022-11-20T05:25:10;19.67;;;12.18;;
22113;SDS011;11223;49.968;9.062;2022-11-20T05:27:36;17.67;;;10.45;;
22113;SDS011;11223;49.968;9.062;2022-11-20T05:30:03;19.40;;;11.45;;
22113;SDS011;11223;49.968;9.062;2022-11-20T05:32:29;19.38;;;9.82;;
22113;SDS011;11223;49.968;9.062;2022-11-20T05:34:55;19.40;;;12.57;;
22113;SDS011;11223;49.968;9.062;2022-11-20T05:37:21;19.40;;;11.10;;
22113;SDS011;11223;49.968;9.062;2022-11-20T05:39:46;20.20;;;12.80;;
22113;SDS011;11223;49.968;9.062;2022-11-20T05:42:12;18.20;;;10.77;;
22113;SDS011;11223;49.968;9.062;2022-11-20T05:44:59;19.23;;;11.18;;
22113;SDS011;11223;49.968;9.062;2022-11-20T05:47:28;27.42;;;14.05;;
22113;SDS011;11223;49.968;9.062;2022-11-20T05:49:57;20.55;;;10.80;;
22113;SDS011;11223;49.968;9.062;2022-11-20T05:52:23;18.90;;;11.60;;
22113;SDS011;11223;49.968;9.062;2022-11-20T05:54:48;21.93;;;10.60;;
22113;SDS011;11223;49.968;9.062;2022-11-20T05:57:14;18.90;;;12.83;;
22113;SDS011;11223;49.968;9.062;2022-11-20T05:59:40;22.27;;;12.03;;
22113;SDS011;11223;49.968;9.062;2022-11-20T06:02:06;18.90;;;11.57;;
22113;SDS011;11223;49.968;9.062;2022-11-20T06:04:31;19.10;;;12.20;;
22113;SDS011;11223;49.968;9.062;2022-11-20T06:06:57;18.33;;;11.67;;
22113;SDS011;11223;49.968;9.062;2022-11-20T06:09:22;23.97;;;12.80;;
22113;SDS011;11223;49.968;9.062;2022-11-20T06:11:48;18.60;;;11.57;;
22113;SDS011;11223;49.968;9.062;2022-11-20T06:14:13;22.20;;;14.80;;
22113;SDS011;11223;49.968;9.062;2022-11-20T06:16:39;16.17;;;11.20;;
22113;SDS011;11223;49.968;9.062;2022-11-20T06:19:05;23.37;;;11.97;;
22113;SDS011;11223;49.968;9.062;2022-11-20T06:21:30;25.50;;;11.60;;
22113;SDS011;11223;49.968;9.062;2022-11-20T06:23:56;21.50;;;13.77;;
22113;SDS011;11223;49.968;9.062;2022-11-20T06:26:26;20.87;;;12.40;;
22113;SDS011;11223;49.968;9.062;2022-11-20T06:28:52;21.73;;;12.98;;
22113;SDS011;11223;49.968;9.062;2022-11-20T06:31:22;20.80;;;12.05;;
22113;SDS011;11223;49.968;9.062;2022-11-20T06:33:49;19.58;;;10.80;;
22113;SDS011;11223;49.968;9.062;2022-11-20T06:36:15;20.45;;;12.55;;
22113;SDS011;11223;49.968;9.062;2022-11-20T06:38:42;22.15;;;11.07;;
22113;SDS011;11223;49.968;9.062;2022-11-20T06:41:10;19.73;;;11.40;;
22113;SDS011;11223;49.968;9.062;2022-11-20T06:43:37;23.05;;;12.73;;
22113;SDS011;11223;49.968;9.062;2022-11-20T06:46:03;23.13;;;12.20;;
22113;SDS011;11223;49.968;9.062;2022-11-20T06:48:29;24.13;;;12.33;;
22113;SDS011;11223;49.968;9.062;2022-11-20T06:50:55;20.60;;;11.90;;
22113;SDS011;11223;49.968;9.062;2022-11-20T06:53:21;19.02;;;10.80;;
22113;SDS011;11223;49.968;9.062;2022-11-20T06:55:48;18.42;;;10.63;;
22113;SDS011;11223;49.968;9.062;2022-11-20T06:58:16;18.67;;;11.63;;
22113;SDS011;11223;49.968;9.062;2022-11-20T07:00:42;20.10;;;10.75;;
22113;SDS011;11223;49.968;9.062;2022-11-20T07:03:09;24.05;;;12.27;;
22113;SDS011;11223;49.968;9.062;2022-11-20T07:05:36;19.55;;;9.85;;
22113;SDS011;11223;49.968;9.062;2022-11-20T07:08:03;16.52;;;9.50;;
22113;SDS011;11223;49.968;9.062;2022-11-20T07:10:29;18.05;;;10.85;;
22113;SDS011;11223;49.968;9.062;2022-11-20T07:12:55;23.07;;;10.97;;
22113;SDS011;11223;49.968;9.062;2022-11-20T07:15:22;21.93;;;10.67;;
22113;SDS011;11223;49.968;9.062;2022-11-20T07:17:48;21.38;;;10.80;;
22113;SDS011;11223;49.968;9.062;2022-11-20T07:20:14;19.07;;;10.87;;
22113;SDS011;11223;49.968;9.062;2022-11-20T07:22:40;16.33;;;10.20;;
22113;SDS011;11223;49.968;9.062;2022-11-20T07:25:06;19.33;;;11.33;;
22113;SDS011;11223;49.968;9.062;2022-11-20T07:27:33;15.25;;;8.40;;
22113;SDS011;11223;49.968;9.062;2022-11-20T07:29:59;17.43;;;9.50;;
22113;SDS011;11223;49.968;9.062;2022-11-20T07:32:25;19.45;;;10.85;;
22113;SDS011;11223;49.968;9.062;2022-11-20T07:34:51;15.57;;;8.13;;
22113;SDS011;11223;49.968;9.062;2022-11-20T07:37:17;16.77;;;10.63;;
22113;SDS011;11223;49.968;9.062;2022-11-20T07:39:42;18.40;;;10.13;;
22113;SDS011;11223;49.968;9.062;2022-11-20T07:42:08;17.30;;;9.33;;
22113;SDS011;11223;49.968;9.062;2022-11-20T07:44:34;17.63;;;8.63;;
22113;SDS011;11223;49.968;9.062;2022-11-20T07:47:00;14.90;;;9.20;;
22113;SDS011;11223;49.968;9.062;2022-11-20T07:49:26;18.48;;;10.30;;
22113;SDS011;11223;49.968;9.062;2022-11-20T07:51:52;13.93;;;8.10;;
22113;SDS011;11223;49.968;9.062;2022-11-20T07:54:19;15.75;;;8.93;;
22113;SDS011;11223;49.968;9.062;2022-11-20T07:56:45;16.58;;;8.57;;
22113;SDS011;11223;49.968;9.062;2022-11-20T07:59:11;12.37;;;7.63;;
22113;SDS011;11223;49.968;9.062;2022-11-20T08:01:37;14.37;;;9.67;;
22113;SDS011;11223;49.968;9.062;2022-11-20T08:04:03;13.38;;;8.93;;
22113;SDS011;11223;49.968;9.062;2022-11-20T08:06:29;17.20;;;9.70;;
22113;SDS011;11223;49.968;9.062;2022-11-20T08:08:55;14.80;;;8.20;;
22113;SDS011;11223;49.968;9.062;2022-11-20T08:11:21;16.73;;;9.27;;
22113;SDS011;11223;49.968;9.062;2022-11-20T08:14:05;13.15;;;7.47;;
22113;SDS011;11223;49.968;9.062;2022-11-20T08:16:40;14.40;;;7.85;;
22113;SDS011;11223;49.968;9.062;2022-11-20T08:19:11;15.18;;;8.55;;
22113;SDS011;11223;49.968;9.062;2022-11-20T08:21:37;16.52;;;9.13;;
22113;SDS011;11223;49.968;9.062;2022-11-20T08:24:03;11.70;;;7.63;;
22113;SDS011;11223;49.968;9.062;2022-11-20T08:26:29;13.32;;;7.90;;
22113;SDS011;11223;49.968;9.062;2022-11-20T08:28:55;13.23;;;8.20;;
22113;SDS011;11223;49.968;9.062;2022-11-20T08:31:25;13.00;;;7.68;;
22113;SDS011;11223;49.968;9.062;2022-11-20T08:33:51;13.65;;;7.70;;
22113;SDS011;11223;49.968;9.062;2022-11-20T08:36:19;12.50;;;7.53;;
22113;SDS011;11223;49.968;9.062;2022-11-20T08:38:47;14.20;;;9.48;;
22113;SDS011;11223;49.968;9.062;2022-11-20T08:41:17;12.35;;;8.32;;
22113;SDS011;11223;49.968;9.062;2022-11-20T08:43:48;10.35;;;6.18;;
22113;SDS011;11223;49.968;9.062;2022-11-20T08:46:25;11.85;;;6.97;;
22113;SDS011;11223;49.968;9.062;2022-11-20T08:48:52;14.88;;;7.40;;
22113;SDS011;11223;49.968;9.062;2022-11-20T08:51:18;14.50;;;7.70;;
22113;SDS011;11223;49.968;9.062;2022-11-20T08:53:44;12.10;;;7.35;;
22113;SDS011;11223;49.968;9.062;2022-11-20T08:56:10;12.07;;;7.20;;
22113;SDS011;11223;49.968;9.062;2022-11-20T08:58:37;15.80;;;7.20;;
22113;SDS011;11223;49.968;9.062;2022-11-20T09:01:03;14.07;;;8.23;;
22113;SDS011;11223;49.968;9.062;2022-11-20T09:03:29;13.32;;;7.82;;
22113;SDS011;11223;49.968;9.062;2022-11-20T09:05:58;16.40;;;8.27;;
22113;SDS011;11223;49.968;9.062;2022-11-20T09:08:25;15.95;;;8.35;;
22113;SDS011;11223;49.968;9.062;2022-11-20T09:10:52;14.98;;;9.18;;
22113;SDS011;11223;49.968;9.062;2022-11-20T09:13:19;13.10;;;8.48;;
22113;SDS011;11223;49.968;9.062;2022-11-20T09:15:52;14.23;;;9.27;;
22113;SDS011;11223;49.968;9.062;2022-11-20T09:18:22;15.05;;;8.70;;
22113;SDS011;11223;49.968;9.062;2022-11-20T09:20:49;12.25;;;8.32;;
22113;SDS011;11223;49.968;9.062;2022-11-20T09:23:14;14.00;;;8.30;;
22113;SDS011;11223;49.968;9.062;2022-11-20T09:25:41;14.23;;;7.95;;
22113;SDS011;11223;49.968;9.062;2022-11-20T09:28:06;14.20;;;8.33;;
22113;SDS011;11223;49.968;9.062;2022-11-20T09:30:32;14.53;;;8.77;;
22113;SDS011;11223;49.968;9.062;2022-11-20T09:32:57;16.60;;;9.63;;
22113;SDS011;11223;49.968;9.062;2022-11-20T09:35:23;12.50;;;7.90;;
22113;SDS011;11223;49.968;9.062;2022-11-20T09:37:49;12.00;;;7.13;;
22113;SDS011;11223;49.968;9.062;2022-11-20T09:45:50;9.10;;;6.50;;
22113;SDS011;11223;49.968;9.062;2022-11-20T09:54:26;12.65;;;6.32;;
22113;SDS011;11223;49.968;9.062;2022-11-20T09:56:59;11.15;;;6.60;;
22113;SDS011;11223;49.968;9.062;2022-11-20T09:59:41;9.73;;;5.95;;
22113;SDS011;11223;49.968;9.062;2022-11-20T10:02:26;10.60;;;7.25;;
22113;SDS011;11223;49.968;9.062;2022-11-20T10:04:55;9.75;;;7.07;;
22113;SDS011;11223;49.968;9.062;2022-11-20T10:10:31;11.32;;;7.10;;
22113;SDS011;11223;49.968;9.062;2022-11-20T10:18:50;10.38;;;6.70;;
22113;SDS011;11223;49.968;9.062;2022-11-20T10:27:06;11.27;;;6.95;;
22113;SDS011;11223;49.968;9.062;2022-11-20T10:30:00;13.57;;;5.75;;
22113;SDS011;11223;49.968;9.062;2022-11-20T10:32:50;8.90;;;6.22;;
22113;SDS011;11223;49.968;9.062;2022-11-20T10:35:34;12.55;;;6.25;;
22113;SDS011;11223;49.968;9.062;2022-11-20T10:38:05;11.43;;;6.50;;
22113;SDS011;11223;49.968;9.062;2022-11-20T10:40:46;11.95;;;7.22;;
22113;SDS011;11223;49.968;9.062;2022-11-20T10:43:18;11.73;;;7.22;;
22113;SDS011;11223;49.968;9.062;2022-11-20T10:48:36;14.15;;;9.00;;
22113;SDS011;11223;49.968;9.062;2022-11-20T10:56:32;11.57;;;8.10;;
22113;SDS011;11223;49.968;9.062;2022-11-20T11:01:58;14.48;;;9.07;;
22113;SDS011;11223;49.968;9.062;2022-11-20T11:04:33;14.47;;;8.80;;
22113;SDS011;11223;49.968;9.062;2022-11-20T11:07:54;12.13;;;8.45;;
22113;SDS011;11223;49.968;9.062;2022-11-20T11:10:01;13.20;;;8.55;;
22113;SDS011;11223;49.968;9.062;2022-11-20T11:12:37;13.63;;;9.07;;
22113;SDS011;11223;49.968;9.062;2022-11-20T11:15:12;15.05;;;10.10;;
22113;SDS011;11223;49.968;9.062;2022-11-20T11:17:49;14.75;;;8.32;;
22113;SDS011;11223;49.968;9.062;2022-11-20T11:22:47;14.98;;;10.93;;
22113;SDS011;11223;49.968;9.062;2022-11-20T11:27:59;13.40;;;10.55;;
22113;SDS011;11223;49.968;9.062;2022-11-20T11:30:27;11.75;;;8.50;;
22113;SDS011;11223;49.968;9.062;2022-11-20T11:33:05;15.38;;;10.65;;
22113;SDS011;11223;49.968;9.062;2022-11-20T11:35:38;14.82;;;9.63;;
22113;SDS011;11223;49.968;9.062;2022-11-20T11:38:12;12.18;;;9.07;;
22113;SDS011;11223;49.968;9.062;2022-11-20T11:40:41;20.05;;;9.93;;
22113;SDS011;11223;49.968;9.062;2022-11-20T11:43:15;16.10;;;10.98;;
22113;SDS011;11223;49.968;9.062;2022-11-20T11:46:49;13.68;;;9.45;;
22113;SDS011;11223;49.968;9.062;2022-11-20T11:51:39;14.88;;;9.77;;
22113;SDS011;11223;49.968;9.062;2022-11-20T11:54:24;13.35;;;9.10;;
22113;SDS011;11223;49.968;9.062;2022-11-20T11:56:55;12.82;;;8.20;;
22113;SDS011;11223;49.968;9.062;2022-11-20T11:59:28;13.07;;;8.15;;
22113;SDS011;11223;49.968;9.062;2022-11-20T12:05:30;14.10;;;8.50;;
22113;SDS011;11223;49.968;9.062;2022-11-20T12:08:27;12.45;;;8.25;;
22113;SDS011;11223;49.968;9.062;2022-11-20T12:11:13;13.60;;;8.73;;
22113;SDS011;11223;49.968;9.062;2022-11-20T12:16:23;14.95;;;8.52;;
22113;SDS011;11223;49.968;9.062;2022-11-20T12:18:50;14.95;;;8.55;;
22113;SDS011;11223;49.968;9.062;2022-11-20T12:21:18;13.40;;;8.95;;
22113;SDS011;11223;49.968;9.062;2022-11-20T12:43:30;12.80;;;10.00;;
22113;SDS011;11223;49.968;9.062;2022-11-20T12:49:26;12.20;;;8.85;;
22113;SDS011;11223;49.968;9.062;2022-11-20T12:52:56;13.20;;;9.75;;
22113;SDS011;11223;49.968;9.062;2022-11-20T12:55:24;17.23;;;11.73;;
22113;SDS011;11223;49.968;9.062;2022-11-20T12:58:05;15.82;;;10.38;;
22113;SDS011;11223;49.968;9.062;2022-11-20T13:00:38;14.38;;;10.15;;
22113;SDS011;11223;49.968;9.062;2022-11-20T13:08:33;13.50;;;8.83;;
22113;SDS011;11223;49.968;9.062;2022-11-20T13:11:12;14.23;;;9.20;;
22113;SDS011;11223;49.968;9.062;2022-11-20T13:13:46;13.73;;;9.95;;
22113;SDS011;11223;49.968;9.062;2022-11-20T13:16:38;14.00;;;10.73;;
22113;SDS011;11223;49.968;9.062;2022-11-20T13:19:22;12.10;;;9.15;;
22113;SDS011;11223;49.968;9.062;2022-11-20T13:21:48;14.60;;;8.90;;
22113;SDS011;11223;49.968;9.062;2022-11-20T13:26:44;13.65;;;9.05;;
22113;SDS011;11223;49.968;9.062;2022-11-20T13:29:18;14.90;;;9.47;;
22113;SDS011;11223;49.968;9.062;2022-11-20T13:31:45;10.48;;;7.45;;
22113;SDS011;11223;49.968;9.062;2022-11-20T13:34:25;10.80;;;7.25;;
22113;SDS011;11223;49.968;9.062;2022-11-20T13:36:53;12.02;;;7.78;;
22113;SDS011;11223;49.968;9.062;2022-11-20T13:39:36;12.77;;;9.32;;
22113;SDS011;11223;49.968;9.062;2022-11-20T13:42:19;11.80;;;7.53;;
22113;SDS011;11223;49.968;9.062;2022-11-20T13:44:53;10.63;;;8.02;;
22113;SDS011;11223;49.968;9.062;2022-11-20T13:47:21;11.77;;;7.63;;
22113;SDS011;11223;49.968;9.062;2022-11-20T13:49:49;13.35;;;8.65;;
22113;SDS011;11223;49.968;9.062;2022-11-20T14:00:44;14.23;;;9.55;;
22113;SDS011;11223;49.968;9.062;2022-11-20T14:03:22;8.68;;;7.45;;
22113;SDS011;11223;49.968;9.062;2022-11-20T14:06:11;12.57;;;9.73;;
22113;SDS011;11223;49.968;9.062;2022-11-20T14:08:42;17.77;;;10.30;;
22113;SDS011;11223;49.968;9.062;2022-11-20T14:11:47;17.73;;;10.85;;
22113;SDS011;11223;49.968;9.062;2022-11-20T14:14:17;14.05;;;9.77;;
22113;SDS011;11223;49.968;9.062;2022-11-20T14:16:45;15.25;;;8.70;;
22113;SDS011;11223;49.968;9.062;2022-11-20T14:21:47;12.95;;;8.98;;
22113;SDS011;11223;49.968;9.062;2022-11-20T14:24:21;14.65;;;9.60;;
22113;SDS011;11223;49.968;9.062;2022-11-20T14:26:48;14.45;;;10.43;;
22113;SDS011;11223;49.968;9.062;2022-11-20T14:29:16;13.90;;;9.88;;
22113;SDS011;11223;49.968;9.062;2022-11-20T14:31:47;13.55;;;9.02;;
22113;SDS011;11223;49.968;9.062;2022-11-20T14:34:18;13.68;;;9.52;;
22113;SDS011;11223;49.968;9.062;2022-11-20T14:36:50;12.05;;;9.05;;
22113;SDS011;11223;49.968;9.062;2022-11-20T14:39:21;12.15;;;9.80;;
22113;SDS011;11223;49.968;9.062;2022-11-20T14:41:53;14.35;;;11.27;;
22113;SDS011;11223;49.968;9.062;2022-11-20T14:44:23;15.18;;;10.20;;
22113;SDS011;11223;49.968;9.062;2022-11-20T14:47:00;15.60;;;10.65;;
22113;SDS011;11223;49.968;9.062;2022-11-20T14:49:29;13.75;;;9.80;;
22113;SDS011;11223;49.968;9.062;2022-11-20T14:52:00;14.75;;;9.75;;
22113;SDS011;11223;49.968;9.062;2022-11-20T14:54:42;14.05;;;10.23;;
22113;SDS011;11223;49.968;9.062;2022-11-20T15:00:04;17.00;;;11.70;;
22113;SDS011;11223;49.968;9.062;2022-11-20T15:02:40;15.07;;;10.93;;
22113;SDS011;11223;49.968;9.062;2022-11-20T15:05:07;13.13;;;10.60;;
22113;SDS011;11223;49.968;9.062;2022-11-20T15:07:43;14.45;;;10.85;;
22113;SDS011;11223;49.968;9.062;2022-11-20T15:10:26;15.52;;;10.13;;
22113;SDS011;11223;49.968;9.062;2022-11-20T15:17:55;14.68;;;12.13;;
22113;SDS011;11223;49.968;9.062;2022-11-20T15:20:21;12.37;;;9.67;;
22113;SDS011;11223;49.968;9.062;2022-11-20T15:22:57;13.57;;;9.68;;
22113;SDS011;11223;49.968;9.062;2022-11-20T15:25:23;15.60;;;10.97;;
22113;SDS011;11223;49.968;9.062;2022-11-20T15:27:50;17.33;;;10.40;;
22113;SDS011;11223;49.968;9.062;2022-11-20T15:30:19;11.57;;;8.18;;
22113;SDS011;11223;49.968;9.062;2022-11-20T15:32:46;15.98;;;9.70;;
22113;SDS011;11223;49.968;9.062;2022-11-20T15:35:13;13.52;;;10.02;;
22113;SDS011;11223;49.968;9.062;2022-11-20T15:37:39;15.65;;;9.82;;
22113;SDS011;11223;49.968;9.062;2022-11-20T15:40:06;12.85;;;9.90;;
22113;SDS011;11223;49.968;9.062;2022-11-20T15:42:32;14.55;;;10.35;;
22113;SDS011;11223;49.968;9.062;2022-11-20T15:44:58;13.23;;;8.73;;
22113;SDS011;11223;49.968;9.062;2022-11-20T15:47:28;12.23;;;9.93;;
22113;SDS011;11223;49.968;9.062;2022-11-20T15:49:58;10.32;;;8.10;;
22113;SDS011;11223;49.968;9.062;2022-11-20T15:52:24;14.10;;;10.63;;
22113;SDS011;11223;49.968;9.062;2022-11-20T15:54:50;8.57;;;7.60;;
22113;SDS011;11223;49.968;9.062;2022-11-20T15:57:15;11.73;;;8.63;;
22113;SDS011;11223;49.968;9.062;2022-11-20T15:59:41;12.00;;;9.23;;
22113;SDS011;11223;49.968;9.062;2022-11-20T16:02:10;11.63;;;8.27;;
22113;SDS011;11223;49.968;9.062;2022-11-20T16:04:36;18.30;;;11.95;;
22113;SDS011;11223;49.968;9.062;2022-11-20T16:07:02;13.83;;;10.40;;
22113;SDS011;11223;49.968;9.062;2022-11-20T16:09:28;15.47;;;10.40;;
22113;SDS011;11223;49.968;9.062;2022-11-20T16:11:53;13.73;;;10.40;;
22113;SDS011;11223;49.968;9.062;2022-11-20T16:14:19;11.37;;;8.13;;
22113;SDS011;11223;49.968;9.062;2022-11-20T16:17:03;11.40;;;8.85;;
22113;SDS011;11223;49.968;9.062;2022-11-20T16:19:29;9.83;;;8.77;;
22113;SDS011;11223;49.968;9.062;2022-11-20T16:21:54;13.90;;;10.30;;
22113;SDS011;11223;49.968;9.062;2022-11-20T16:24:22;14.45;;;11.05;;
22113;SDS011;11223;49.968;9.062;2022-11-20T16:26:47;17.57;;;13.50;;
22113;SDS011;11223;49.968;9.062;2022-11-20T16:29:13;13.00;;;11.10;;
22113;SDS011;11223;49.968;9.062;2022-11-20T16:31:38;22.47;;;12.97;;